sensor_id;sensor_type;location;lat;lon;timestamp;temperature;humidity
2162;DHT22;1087;50.226;8.682;2022-11-13T00:00:31;8.50;99.90
2162;DHT22;1087;50.226;8.682;2022-11-13T00:02:57;8.30;99.90
2162;DHT22;1087;50.226;8.682;2022-11-13T00:05:22;8.30;99.90
2162;DHT22;1087;50.226;8.682;2022-11-13T00:07:48;8.30;99.90
2162;DHT22;1087;50.226;8.682;2022-11-13T00:10:13;8.30;99.90
2162;DHT22;1087;50.226;8.682;2022-11-13T00:12:39;8.30;99.90
2162;DHT22;1087;50.226;8.682;2022-11-13T00:15:05;8.30;99.90
2162;DHT22;1087;50.226;8.682;2022-11-13T00:17:31;8.20;99.90
2162;DHT22;1087;50.226;8.682;2022-11-13T00:19:56;8.20;99.90
2162;DHT22;1087;50.226;8.682;2022-11-13T00:22:21;8.20;99.90
2162;DHT22;1087;50.226;8.682;2022-11-13T00:24:47;8.20;99.90
2162;DHT22;1087;50.226;8.682;2022-11-13T00:27:12;8.10;99.90
2162;DHT22;1087;50.226;8.682;2022-11-13T00:29:39;8.10;99.90
2162;DHT22;1087;50.226;8.682;2022-11-13T00:32:04;8.10;99.90
2162;DHT22;1087;50.226;8.682;2022-11-13T00:34:30;8.10;99.90
2162;DHT22;1087;50.226;8.682;2022-11-13T00:36:55;8.10;99.90
2162;DHT22;1087;50.226;8.682;2022-11-13T00:39:21;8.10;99.90
2162;DHT22;1087;50.226;8.682;2022-11-13T00:41:46;8.10;99.90
2162;DHT22;1087;50.226;8.682;2022-11-13T00:44:12;8.10;99.90
2162;DHT22;1087;50.226;8.682;2022-11-13T00:46:37;8.00;99.90
2162;DHT22;1087;50.226;8.682;2022-11-13T00:49:03;8.00;99.90
2162;DHT22;1087;50.226;8.682;2022-11-13T00:51:29;8.00;99.90
2162;DHT22;1087;50.226;8.682;2022-11-13T00:53:55;8.00;99.90
2162;DHT22;1087;50.226;8.682;2022-11-13T00:56:20;7.90;99.90
2162;DHT22;1087;50.226;8.682;2022-11-13T00:58:46;8.00;99.90
2162;DHT22;1087;50.226;8.682;2022-11-13T01:01:14;8.00;99.90
2162;DHT22;1087;50.226;8.682;2022-11-13T01:03:40;8.00;99.90
2162;DHT22;1087;50.226;8.682;2022-11-13T01:06:14;7.90;99.90
2162;DHT22;1087;50.226;8.682;2022-11-13T01:08:41;7.90;99.90
2162;DHT22;1087;50.226;8.682;2022-11-13T01:11:27;7.90;99.90
2162;DHT22;1087;50.226;8.682;2022-11-13T01:13:53;7.90;99.90
2162;DHT22;1087;50.226;8.682;2022-11-13T01:16:22;7.90;99.90
2162;DHT22;1087;50.226;8.682;2022-11-13T01:18:48;7.80;99.90
2162;DHT22;1087;50.226;8.682;2022-11-13T01:21:19;7.80;99.90
2162;DHT22;1087;50.226;8.682;2022-11-13T01:23:45;7.80;99.90
2162;DHT22;1087;50.226;8.682;2022-11-13T01:26:12;7.80;99.90
2162;DHT22;1087;50.226;8.682;2022-11-13T01:28:39;7.80;99.90
2162;DHT22;1087;50.226;8.682;2022-11-13T01:31:06;7.80;99.90
2162;DHT22;1087;50.226;8.682;2022-11-13T01:33:32;7.70;99.90
2162;DHT22;1087;50.226;8.682;2022-11-13T01:36:06;7.70;99.90
2162;DHT22;1087;50.226;8.682;2022-11-13T01:38:32;7.70;99.90
2162;DHT22;1087;50.226;8.682;2022-11-13T01:40:58;7.60;99.90
2162;DHT22;1087;50.226;8.682;2022-11-13T01:43:26;7.60;99.90
2162;DHT22;1087;50.226;8.682;2022-11-13T01:48:32;7.60;99.90
2162;DHT22;1087;50.226;8.682;2022-11-13T01:50:58;7.60;99.90
2162;DHT22;1087;50.226;8.682;2022-11-13T01:53:24;7.60;99.90
2162;DHT22;1087;50.226;8.682;2022-11-13T01:55:50;7.60;99.90
2162;DHT22;1087;50.226;8.682;2022-11-13T01:58:16;7.70;99.90
2162;DHT22;1087;50.226;8.682;2022-11-13T02:00:42;7.60;99.90
2162;DHT22;1087;50.226;8.682;2022-11-13T02:03:07;7.60;99.90
2162;DHT22;1087;50.226;8.682;2022-11-13T02:05:33;7.60;99.90
2162;DHT22;1087;50.226;8.682;2022-11-13T02:07:59;7.60;99.90
2162;DHT22;1087;50.226;8.682;2022-11-13T02:10:25;7.50;99.90
2162;DHT22;1087;50.226;8.682;2022-11-13T02:12:51;7.50;99.90
2162;DHT22;1087;50.226;8.682;2022-11-13T02:15:19;7.50;99.90
2162;DHT22;1087;50.226;8.682;2022-11-13T02:17:56;7.50;99.90
2162;DHT22;1087;50.226;8.682;2022-11-13T02:23:01;7.50;99.90
2162;DHT22;1087;50.226;8.682;2022-11-13T02:25:31;7.50;99.90
2162;DHT22;1087;50.226;8.682;2022-11-13T02:27:57;7.50;99.90
2162;DHT22;1087;50.226;8.682;2022-11-13T02:30:29;7.40;99.90
2162;DHT22;1087;50.226;8.682;2022-11-13T02:32:56;7.40;99.90
2162;DHT22;1087;50.226;8.682;2022-11-13T02:35:30;7.40;99.90
2162;DHT22;1087;50.226;8.682;2022-11-13T02:37:58;7.30;99.90
2162;DHT22;1087;50.226;8.682;2022-11-13T02:40:24;7.40;99.90
2162;DHT22;1087;50.226;8.682;2022-11-13T02:42:49;7.40;99.90
2162;DHT22;1087;50.226;8.682;2022-11-13T02:45:15;7.40;99.90
2162;DHT22;1087;50.226;8.682;2022-11-13T02:47:41;7.40;99.90
2162;DHT22;1087;50.226;8.682;2022-11-13T02:50:08;7.40;99.90
2162;DHT22;1087;50.226;8.682;2022-11-13T02:52:34;7.30;99.90
2162;DHT22;1087;50.226;8.682;2022-11-13T02:55:00;7.30;99.90
2162;DHT22;1087;50.226;8.682;2022-11-13T02:57:25;7.30;99.90
2162;DHT22;1087;50.226;8.682;2022-11-13T02:59:51;7.30;99.90
2162;DHT22;1087;50.226;8.682;2022-11-13T03:02:16;7.20;99.90
2162;DHT22;1087;50.226;8.682;2022-11-13T03:04:42;7.30;99.90
2162;DHT22;1087;50.226;8.682;2022-11-13T03:07:09;7.30;99.90
2162;DHT22;1087;50.226;8.682;2022-11-13T03:09:34;7.30;99.90
2162;DHT22;1087;50.226;8.682;2022-11-13T03:12:00;7.20;99.90
2162;DHT22;1087;50.226;8.682;2022-11-13T03:14:25;7.20;99.90
2162;DHT22;1087;50.226;8.682;2022-11-13T03:16:51;7.20;99.90
2162;DHT22;1087;50.226;8.682;2022-11-13T03:19:16;7.20;99.90
2162;DHT22;1087;50.226;8.682;2022-11-13T03:21:42;7.20;99.90
2162;DHT22;1087;50.226;8.682;2022-11-13T03:24:07;7.10;99.90
2162;DHT22;1087;50.226;8.682;2022-11-13T03:26:33;7.10;99.90
2162;DHT22;1087;50.226;8.682;2022-11-13T03:28:58;7.00;99.90
2162;DHT22;1087;50.226;8.682;2022-11-13T03:31:24;7.00;99.90
2162;DHT22;1087;50.226;8.682;2022-11-13T03:33:53;7.00;99.90
2162;DHT22;1087;50.226;8.682;2022-11-13T03:36:19;7.00;99.90
2162;DHT22;1087;50.226;8.682;2022-11-13T03:38:44;6.90;99.90
2162;DHT22;1087;50.226;8.682;2022-11-13T03:41:10;6.90;99.90
2162;DHT22;1087;50.226;8.682;2022-11-13T03:43:35;7.00;99.90
2162;DHT22;1087;50.226;8.682;2022-11-13T03:46:01;7.00;99.90
2162;DHT22;1087;50.226;8.682;2022-11-13T03:48:26;7.00;99.90
2162;DHT22;1087;50.226;8.682;2022-11-13T03:50:53;7.00;99.90
2162;DHT22;1087;50.226;8.682;2022-11-13T03:53:20;7.00;99.90
2162;DHT22;1087;50.226;8.682;2022-11-13T03:55:46;7.00;99.90
2162;DHT22;1087;50.226;8.682;2022-11-13T03:58:12;7.10;99.90
2162;DHT22;1087;50.226;8.682;2022-11-13T04:00:39;7.00;99.90
2162;DHT22;1087;50.226;8.682;2022-11-13T04:03:05;7.00;99.90
2162;DHT22;1087;50.226;8.682;2022-11-13T04:05:31;7.00;99.90
2162;DHT22;1087;50.226;8.682;2022-11-13T04:07:56;7.00;99.90
2162;DHT22;1087;50.226;8.682;2022-11-13T04:10:22;7.00;99.90
2162;DHT22;1087;50.226;8.682;2022-11-13T04:12:48;7.00;99.90
2162;DHT22;1087;50.226;8.682;2022-11-13T04:15:14;7.00;99.90
2162;DHT22;1087;50.226;8.682;2022-11-13T04:17:39;7.00;99.90
2162;DHT22;1087;50.226;8.682;2022-11-13T04:20:05;7.00;99.90
2162;DHT22;1087;50.226;8.682;2022-11-13T04:22:31;6.90;99.90
2162;DHT22;1087;50.226;8.682;2022-11-13T04:24:56;6.90;99.90
2162;DHT22;1087;50.226;8.682;2022-11-13T04:27:22;7.10;99.90
2162;DHT22;1087;50.226;8.682;2022-11-13T04:29:47;7.00;99.90
2162;DHT22;1087;50.226;8.682;2022-11-13T04:32:13;7.00;99.90
2162;DHT22;1087;50.226;8.682;2022-11-13T04:34:38;6.90;99.90
2162;DHT22;1087;50.226;8.682;2022-11-13T04:37:04;6.90;99.90
2162;DHT22;1087;50.226;8.682;2022-11-13T04:39:29;6.90;99.90
2162;DHT22;1087;50.226;8.682;2022-11-13T04:41:55;7.00;99.90
2162;DHT22;1087;50.226;8.682;2022-11-13T04:44:39;7.00;99.90
2162;DHT22;1087;50.226;8.682;2022-11-13T04:47:04;6.90;99.90
2162;DHT22;1087;50.226;8.682;2022-11-13T04:49:30;6.90;99.90
2162;DHT22;1087;50.226;8.682;2022-11-13T04:51:55;7.00;99.90
2162;DHT22;1087;50.226;8.682;2022-11-13T04:54:21;7.00;99.90
2162;DHT22;1087;50.226;8.682;2022-11-13T04:56:46;6.90;99.90
2162;DHT22;1087;50.226;8.682;2022-11-13T04:59:12;6.90;99.90
2162;DHT22;1087;50.226;8.682;2022-11-13T05:01:38;6.90;99.90
2162;DHT22;1087;50.226;8.682;2022-11-13T05:04:03;6.90;99.90
2162;DHT22;1087;50.226;8.682;2022-11-13T05:06:29;6.80;99.90
2162;DHT22;1087;50.226;8.682;2022-11-13T05:08:54;6.80;99.90
2162;DHT22;1087;50.226;8.682;2022-11-13T05:11:21;6.80;99.90
2162;DHT22;1087;50.226;8.682;2022-11-13T05:13:46;6.70;99.90
2162;DHT22;1087;50.226;8.682;2022-11-13T05:16:13;6.70;99.90
2162;DHT22;1087;50.226;8.682;2022-11-13T05:18:39;6.70;99.90
2162;DHT22;1087;50.226;8.682;2022-11-13T05:21:06;6.80;99.90
2162;DHT22;1087;50.226;8.682;2022-11-13T05:23:32;6.70;99.90
2162;DHT22;1087;50.226;8.682;2022-11-13T05:26:11;6.60;99.90
2162;DHT22;1087;50.226;8.682;2022-11-13T05:28:37;6.70;99.90
2162;DHT22;1087;50.226;8.682;2022-11-13T05:31:10;6.80;99.90
2162;DHT22;1087;50.226;8.682;2022-11-13T05:33:37;6.80;99.90
2162;DHT22;1087;50.226;8.682;2022-11-13T05:36:04;6.80;99.90
2162;DHT22;1087;50.226;8.682;2022-11-13T05:38:31;6.70;99.90
2162;DHT22;1087;50.226;8.682;2022-11-13T05:41:04;6.70;99.90
2162;DHT22;1087;50.226;8.682;2022-11-13T05:43:31;6.70;99.90
2162;DHT22;1087;50.226;8.682;2022-11-13T05:48:26;6.70;99.90
2162;DHT22;1087;50.226;8.682;2022-11-13T05:50:51;6.70;99.90
2162;DHT22;1087;50.226;8.682;2022-11-13T05:53:16;6.70;99.90
2162;DHT22;1087;50.226;8.682;2022-11-13T05:55:42;6.70;99.90
2162;DHT22;1087;50.226;8.682;2022-11-13T05:58:08;6.80;99.90
2162;DHT22;1087;50.226;8.682;2022-11-13T06:00:33;6.80;99.90
2162;DHT22;1087;50.226;8.682;2022-11-13T06:02:59;6.70;99.90
2162;DHT22;1087;50.226;8.682;2022-11-13T06:05:24;6.70;99.90
2162;DHT22;1087;50.226;8.682;2022-11-13T06:07:50;6.70;99.90
2162;DHT22;1087;50.226;8.682;2022-11-13T06:10:15;6.70;99.90
2162;DHT22;1087;50.226;8.682;2022-11-13T06:12:41;6.70;99.90
2162;DHT22;1087;50.226;8.682;2022-11-13T06:15:07;6.60;99.90
2162;DHT22;1087;50.226;8.682;2022-11-13T06:17:32;6.60;99.90
2162;DHT22;1087;50.226;8.682;2022-11-13T06:19:58;6.50;99.90
2162;DHT22;1087;50.226;8.682;2022-11-13T06:22:23;6.50;99.90
2162;DHT22;1087;50.226;8.682;2022-11-13T06:24:49;6.50;99.90
2162;DHT22;1087;50.226;8.682;2022-11-13T06:27:14;6.40;99.90
2162;DHT22;1087;50.226;8.682;2022-11-13T06:29:40;6.40;99.90
2162;DHT22;1087;50.226;8.682;2022-11-13T06:32:05;6.50;99.90
2162;DHT22;1087;50.226;8.682;2022-11-13T06:34:31;6.50;99.90
2162;DHT22;1087;50.226;8.682;2022-11-13T06:36:56;6.40;99.90
2162;DHT22;1087;50.226;8.682;2022-11-13T06:39:22;6.40;99.90
2162;DHT22;1087;50.226;8.682;2022-11-13T06:41:47;6.30;99.90
2162;DHT22;1087;50.226;8.682;2022-11-13T06:44:13;6.30;99.90
2162;DHT22;1087;50.226;8.682;2022-11-13T06:46:38;6.40;99.90
2162;DHT22;1087;50.226;8.682;2022-11-13T06:49:04;6.30;99.90
2162;DHT22;1087;50.226;8.682;2022-11-13T06:51:30;6.30;99.90
2162;DHT22;1087;50.226;8.682;2022-11-13T06:53:56;6.30;99.90
2162;DHT22;1087;50.226;8.682;2022-11-13T06:56:23;6.20;99.90
2162;DHT22;1087;50.226;8.682;2022-11-13T06:58:48;6.20;99.90
2162;DHT22;1087;50.226;8.682;2022-11-13T07:01:21;6.20;99.90
2162;DHT22;1087;50.226;8.682;2022-11-13T07:03:47;6.20;99.90
2162;DHT22;1087;50.226;8.682;2022-11-13T07:06:16;6.20;99.90
2162;DHT22;1087;50.226;8.682;2022-11-13T07:08:43;6.10;99.90
2162;DHT22;1087;50.226;8.682;2022-11-13T07:11:11;6.10;99.90
2162;DHT22;1087;50.226;8.682;2022-11-13T07:13:37;6.10;99.90
2162;DHT22;1087;50.226;8.682;2022-11-13T07:16:05;6.20;99.90
2162;DHT22;1087;50.226;8.682;2022-11-13T07:18:31;6.20;99.90
2162;DHT22;1087;50.226;8.682;2022-11-13T07:21:02;6.20;99.90
2162;DHT22;1087;50.226;8.682;2022-11-13T07:23:28;6.20;99.90
2162;DHT22;1087;50.226;8.682;2022-11-13T07:25:53;6.30;99.90
2162;DHT22;1087;50.226;8.682;2022-11-13T07:28:21;6.30;99.90
2162;DHT22;1087;50.226;8.682;2022-11-13T07:30:47;6.30;99.90
2162;DHT22;1087;50.226;8.682;2022-11-13T07:33:13;6.30;99.90
2162;DHT22;1087;50.226;8.682;2022-11-13T07:35:38;6.40;99.90
2162;DHT22;1087;50.226;8.682;2022-11-13T07:38:04;6.40;99.90
2162;DHT22;1087;50.226;8.682;2022-11-13T07:40:29;6.50;99.90
2162;DHT22;1087;50.226;8.682;2022-11-13T07:42:59;6.50;99.90
2162;DHT22;1087;50.226;8.682;2022-11-13T07:45:26;6.40;99.90
2162;DHT22;1087;50.226;8.682;2022-11-13T07:47:56;6.40;99.90
2162;DHT22;1087;50.226;8.682;2022-11-13T07:50:22;6.40;99.90
2162;DHT22;1087;50.226;8.682;2022-11-13T07:52:48;6.40;99.90
2162;DHT22;1087;50.226;8.682;2022-11-13T07:55:13;6.40;99.90
2162;DHT22;1087;50.226;8.682;2022-11-13T07:57:39;6.50;99.90
2162;DHT22;1087;50.226;8.682;2022-11-13T08:00:05;6.60;99.90
2162;DHT22;1087;50.226;8.682;2022-11-13T08:02:30;6.60;99.90
2162;DHT22;1087;50.226;8.682;2022-11-13T08:04:56;6.60;99.90
2162;DHT22;1087;50.226;8.682;2022-11-13T08:07:21;6.60;99.90
2162;DHT22;1087;50.226;8.682;2022-11-13T08:09:47;6.60;99.90
2162;DHT22;1087;50.226;8.682;2022-11-13T08:12:12;6.60;99.90
2162;DHT22;1087;50.226;8.682;2022-11-13T08:14:38;6.70;99.90
2162;DHT22;1087;50.226;8.682;2022-11-13T08:17:03;6.70;99.90
2162;DHT22;1087;50.226;8.682;2022-11-13T08:19:29;6.70;99.90
2162;DHT22;1087;50.226;8.682;2022-11-13T08:21:54;6.80;99.90
2162;DHT22;1087;50.226;8.682;2022-11-13T08:24:20;6.80;99.90
2162;DHT22;1087;50.226;8.682;2022-11-13T08:26:45;6.90;99.90
2162;DHT22;1087;50.226;8.682;2022-11-13T08:29:11;6.90;99.90
2162;DHT22;1087;50.226;8.682;2022-11-13T08:31:36;6.90;99.90
2162;DHT22;1087;50.226;8.682;2022-11-13T08:34:02;6.90;99.90
2162;DHT22;1087;50.226;8.682;2022-11-13T08:36:27;6.90;99.90
2162;DHT22;1087;50.226;8.682;2022-11-13T08:38:53;6.90;99.90
2162;DHT22;1087;50.226;8.682;2022-11-13T08:41:18;7.00;99.90
2162;DHT22;1087;50.226;8.682;2022-11-13T08:43:44;7.10;99.90
2162;DHT22;1087;50.226;8.682;2022-11-13T08:46:09;7.20;99.90
2162;DHT22;1087;50.226;8.682;2022-11-13T08:48:35;7.30;99.90
2162;DHT22;1087;50.226;8.682;2022-11-13T08:51:02;7.30;99.90
2162;DHT22;1087;50.226;8.682;2022-11-13T08:53:27;7.30;99.90
2162;DHT22;1087;50.226;8.682;2022-11-13T08:55:53;7.30;99.90
2162;DHT22;1087;50.226;8.682;2022-11-13T08:58:18;7.40;99.90
2162;DHT22;1087;50.226;8.682;2022-11-13T09:00:44;7.50;99.90
2162;DHT22;1087;50.226;8.682;2022-11-13T09:03:10;7.60;99.90
2162;DHT22;1087;50.226;8.682;2022-11-13T09:05:36;7.70;99.90
2162;DHT22;1087;50.226;8.682;2022-11-13T09:08:01;7.70;99.90
2162;DHT22;1087;50.226;8.682;2022-11-13T09:10:28;7.80;99.90
2162;DHT22;1087;50.226;8.682;2022-11-13T09:12:58;7.90;99.90
2162;DHT22;1087;50.226;8.682;2022-11-13T09:15:24;7.90;99.90
2162;DHT22;1087;50.226;8.682;2022-11-13T09:17:49;7.80;99.90
2162;DHT22;1087;50.226;8.682;2022-11-13T09:20:15;7.80;99.90
2162;DHT22;1087;50.226;8.682;2022-11-13T09:22:41;7.90;99.90
2162;DHT22;1087;50.226;8.682;2022-11-13T09:25:06;7.90;99.90
2162;DHT22;1087;50.226;8.682;2022-11-13T09:27:32;8.00;99.90
2162;DHT22;1087;50.226;8.682;2022-11-13T09:29:58;8.10;99.90
2162;DHT22;1087;50.226;8.682;2022-11-13T09:32:23;8.10;99.90
2162;DHT22;1087;50.226;8.682;2022-11-13T09:34:49;8.20;99.90
2162;DHT22;1087;50.226;8.682;2022-11-13T09:37:15;8.20;99.90
2162;DHT22;1087;50.226;8.682;2022-11-13T09:39:40;8.20;99.90
2162;DHT22;1087;50.226;8.682;2022-11-13T09:42:21;8.30;99.90
2162;DHT22;1087;50.226;8.682;2022-11-13T09:45:01;8.40;99.90
2162;DHT22;1087;50.226;8.682;2022-11-13T09:47:34;8.40;99.90
2162;DHT22;1087;50.226;8.682;2022-11-13T09:50:11;8.40;99.90
2162;DHT22;1087;50.226;8.682;2022-11-13T09:52:42;8.40;99.90
2162;DHT22;1087;50.226;8.682;2022-11-13T09:55:11;8.50;99.90
2162;DHT22;1087;50.226;8.682;2022-11-13T09:57:52;8.30;99.90
2162;DHT22;1087;50.226;8.682;2022-11-13T10:00:21;8.20;99.90
2162;DHT22;1087;50.226;8.682;2022-11-13T10:08:30;8.40;99.90
2162;DHT22;1087;50.226;8.682;2022-11-13T10:14:16;8.70;99.90
2162;DHT22;1087;50.226;8.682;2022-11-13T10:17:05;8.80;99.90
2162;DHT22;1087;50.226;8.682;2022-11-13T10:19:41;9.00;99.90
2162;DHT22;1087;50.226;8.682;2022-11-13T10:22:22;9.00;99.90
2162;DHT22;1087;50.226;8.682;2022-11-13T10:24:51;9.10;99.90
2162;DHT22;1087;50.226;8.682;2022-11-13T10:27:22;9.10;99.90
2162;DHT22;1087;50.226;8.682;2022-11-13T10:29:47;9.10;99.90
2162;DHT22;1087;50.226;8.682;2022-11-13T10:32:21;9.20;99.90
2162;DHT22;1087;50.226;8.682;2022-11-13T10:34:53;9.40;99.90
2162;DHT22;1087;50.226;8.682;2022-11-13T10:40:09;9.40;99.90
2162;DHT22;1087;50.226;8.682;2022-11-13T10:42:38;9.50;99.90
2162;DHT22;1087;50.226;8.682;2022-11-13T10:45:16;9.30;99.90
2162;DHT22;1087;50.226;8.682;2022-11-13T10:47:50;9.50;99.90
2162;DHT22;1087;50.226;8.682;2022-11-13T10:50:27;9.60;99.90
2162;DHT22;1087;50.226;8.682;2022-11-13T10:52:55;9.60;99.90
2162;DHT22;1087;50.226;8.682;2022-11-13T10:58:01;9.60;99.90
2162;DHT22;1087;50.226;8.682;2022-11-13T11:00:33;9.70;99.90
2162;DHT22;1087;50.226;8.682;2022-11-13T11:02:59;9.70;99.90
2162;DHT22;1087;50.226;8.682;2022-11-13T11:05:25;9.70;99.90
2162;DHT22;1087;50.226;8.682;2022-11-13T11:07:53;9.70;99.90
2162;DHT22;1087;50.226;8.682;2022-11-13T11:10:25;9.70;99.90
2162;DHT22;1087;50.226;8.682;2022-11-13T11:12:56;9.70;99.90
2162;DHT22;1087;50.226;8.682;2022-11-13T11:15:28;9.60;99.90
2162;DHT22;1087;50.226;8.682;2022-11-13T11:18:00;9.50;99.90
2162;DHT22;1087;50.226;8.682;2022-11-13T11:20:42;9.60;99.90
2162;DHT22;1087;50.226;8.682;2022-11-13T11:26:03;9.70;99.90
2162;DHT22;1087;50.226;8.682;2022-11-13T11:28:38;9.70;99.90
2162;DHT22;1087;50.226;8.682;2022-11-13T11:31:38;9.70;99.90
2162;DHT22;1087;50.226;8.682;2022-11-13T11:34:24;9.80;99.90
2162;DHT22;1087;50.226;8.682;2022-11-13T11:37:12;9.80;99.90
2162;DHT22;1087;50.226;8.682;2022-11-13T11:39:50;9.90;99.90
2162;DHT22;1087;50.226;8.682;2022-11-13T11:45:43;10.00;99.90
2162;DHT22;1087;50.226;8.682;2022-11-13T11:48:13;10.10;99.90
2162;DHT22;1087;50.226;8.682;2022-11-13T11:56:25;10.30;99.90
2162;DHT22;1087;50.226;8.682;2022-11-13T11:59:05;10.40;99.90
2162;DHT22;1087;50.226;8.682;2022-11-13T12:01:38;10.40;99.90
2162;DHT22;1087;50.226;8.682;2022-11-13T12:06:50;10.60;99.90
2162;DHT22;1087;50.226;8.682;2022-11-13T12:09:32;10.60;99.90
2162;DHT22;1087;50.226;8.682;2022-11-13T12:20:58;10.70;99.90
2162;DHT22;1087;50.226;8.682;2022-11-13T12:23:39;10.80;99.90
2162;DHT22;1087;50.226;8.682;2022-11-13T12:26:24;10.80;99.90
2162;DHT22;1087;50.226;8.682;2022-11-13T12:29:23;10.80;99.90
2162;DHT22;1087;50.226;8.682;2022-11-13T12:32:10;10.90;99.90
2162;DHT22;1087;50.226;8.682;2022-11-13T12:34:43;11.00;99.90
2162;DHT22;1087;50.226;8.682;2022-11-13T12:37:15;11.10;99.90
2162;DHT22;1087;50.226;8.682;2022-11-13T12:39:53;11.20;99.90
2162;DHT22;1087;50.226;8.682;2022-11-13T12:42:22;11.80;99.90
2162;DHT22;1087;50.226;8.682;2022-11-13T12:47:24;12.60;99.90
2162;DHT22;1087;50.226;8.682;2022-11-13T12:50:01;12.40;99.90
2162;DHT22;1087;50.226;8.682;2022-11-13T12:52:27;12.50;99.90
2162;DHT22;1087;50.226;8.682;2022-11-13T12:55:06;12.70;99.90
2162;DHT22;1087;50.226;8.682;2022-11-13T12:57:32;13.10;99.90
2162;DHT22;1087;50.226;8.682;2022-11-13T13:00:26;13.20;99.90
2162;DHT22;1087;50.226;8.682;2022-11-13T13:15:51;12.10;99.90
2162;DHT22;1087;50.226;8.682;2022-11-13T13:17:39;12.00;99.90
2162;DHT22;1087;50.226;8.682;2022-11-13T13:20:33;12.00;99.90
2162;DHT22;1087;50.226;8.682;2022-11-13T13:23:00;12.00;99.90
2162;DHT22;1087;50.226;8.682;2022-11-13T13:25:31;12.00;99.90
2162;DHT22;1087;50.226;8.682;2022-11-13T13:28:02;12.00;99.90
2162;DHT22;1087;50.226;8.682;2022-11-13T13:30:32;11.90;99.90
2162;DHT22;1087;50.226;8.682;2022-11-13T13:35:51;11.90;99.90
2162;DHT22;1087;50.226;8.682;2022-11-13T13:38:25;11.80;99.90
2162;DHT22;1087;50.226;8.682;2022-11-13T13:41:25;11.80;99.90
2162;DHT22;1087;50.226;8.682;2022-11-13T13:46:43;11.80;99.90
2162;DHT22;1087;50.226;8.682;2022-11-13T13:49:14;11.80;99.90
2162;DHT22;1087;50.226;8.682;2022-11-13T13:51:43;11.80;99.90
2162;DHT22;1087;50.226;8.682;2022-11-13T13:54:16;11.70;99.90
2162;DHT22;1087;50.226;8.682;2022-11-13T13:56:43;11.80;99.90
2162;DHT22;1087;50.226;8.682;2022-11-13T13:59:20;11.70;99.90
2162;DHT22;1087;50.226;8.682;2022-11-13T14:01:54;11.70;99.90
2162;DHT22;1087;50.226;8.682;2022-11-13T14:04:22;11.70;99.90
2162;DHT22;1087;50.226;8.682;2022-11-13T14:06:49;11.70;99.90
2162;DHT22;1087;50.226;8.682;2022-11-13T14:09:21;11.70;99.90
2162;DHT22;1087;50.226;8.682;2022-11-13T14:11:47;11.70;99.90
2162;DHT22;1087;50.226;8.682;2022-11-13T14:14:21;11.60;99.90
2162;DHT22;1087;50.226;8.682;2022-11-13T14:16:52;11.50;99.90
2162;DHT22;1087;50.226;8.682;2022-11-13T14:19:18;11.60;99.90
2162;DHT22;1087;50.226;8.682;2022-11-13T14:21:45;11.60;99.90
2162;DHT22;1087;50.226;8.682;2022-11-13T14:24:34;11.60;99.90
2162;DHT22;1087;50.226;8.682;2022-11-13T14:27:08;11.60;99.90
2162;DHT22;1087;50.226;8.682;2022-11-13T14:29:48;11.60;99.90
2162;DHT22;1087;50.226;8.682;2022-11-13T14:32:21;11.50;99.90
2162;DHT22;1087;50.226;8.682;2022-11-13T14:34:51;11.50;99.90
2162;DHT22;1087;50.226;8.682;2022-11-13T14:37:26;11.40;99.90
2162;DHT22;1087;50.226;8.682;2022-11-13T14:39:55;11.40;99.90
2162;DHT22;1087;50.226;8.682;2022-11-13T14:42:37;11.40;99.90
2162;DHT22;1087;50.226;8.682;2022-11-13T14:45:16;11.40;99.90
2162;DHT22;1087;50.226;8.682;2022-11-13T14:47:53;11.40;99.90
2162;DHT22;1087;50.226;8.682;2022-11-13T14:52:56;11.40;99.90
2162;DHT22;1087;50.226;8.682;2022-11-13T14:55:29;11.40;99.90
2162;DHT22;1087;50.226;8.682;2022-11-13T14:57:55;11.30;99.90
2162;DHT22;1087;50.226;8.682;2022-11-13T15:00:35;11.40;99.90
2162;DHT22;1087;50.226;8.682;2022-11-13T15:03:04;11.30;99.90
2162;DHT22;1087;50.226;8.682;2022-11-13T15:05:31;11.40;99.90
2162;DHT22;1087;50.226;8.682;2022-11-13T15:07:58;11.40;99.90
2162;DHT22;1087;50.226;8.682;2022-11-13T15:10:27;11.40;99.90
2162;DHT22;1087;50.226;8.682;2022-11-13T15:12:55;11.40;99.90
2162;DHT22;1087;50.226;8.682;2022-11-13T15:15:25;11.30;99.90
2162;DHT22;1087;50.226;8.682;2022-11-13T15:17:53;11.30;99.90
2162;DHT22;1087;50.226;8.682;2022-11-13T15:20:25;11.30;99.90
2162;DHT22;1087;50.226;8.682;2022-11-13T15:22:52;11.30;99.90
2162;DHT22;1087;50.226;8.682;2022-11-13T15:25:22;11.20;99.90
2162;DHT22;1087;50.226;8.682;2022-11-13T15:27:49;11.30;99.90
2162;DHT22;1087;50.226;8.682;2022-11-13T15:30:16;11.20;99.90
2162;DHT22;1087;50.226;8.682;2022-11-13T15:32:46;11.20;99.90
2162;DHT22;1087;50.226;8.682;2022-11-13T15:35:16;11.30;99.90
2162;DHT22;1087;50.226;8.682;2022-11-13T15:37:43;11.20;99.90
2162;DHT22;1087;50.226;8.682;2022-11-13T15:40:11;11.30;99.90
2162;DHT22;1087;50.226;8.682;2022-11-13T15:42:38;11.30;99.90
2162;DHT22;1087;50.226;8.682;2022-11-13T15:45:05;11.40;99.90
2162;DHT22;1087;50.226;8.682;2022-11-13T15:47:35;11.40;99.90
2162;DHT22;1087;50.226;8.682;2022-11-13T15:50:03;11.20;99.90
2162;DHT22;1087;50.226;8.682;2022-11-13T15:52:36;11.30;99.90
2162;DHT22;1087;50.226;8.682;2022-11-13T15:55:05;11.30;99.90
2162;DHT22;1087;50.226;8.682;2022-11-13T15:57:32;11.30;99.90
2162;DHT22;1087;50.226;8.682;2022-11-13T15:59:58;11.20;99.90
2162;DHT22;1087;50.226;8.682;2022-11-13T16:02:25;11.10;99.90
2162;DHT22;1087;50.226;8.682;2022-11-13T16:04:54;11.10;99.90
2162;DHT22;1087;50.226;8.682;2022-11-13T16:07:26;11.00;99.90
2162;DHT22;1087;50.226;8.682;2022-11-13T16:09:56;11.00;99.90
2162;DHT22;1087;50.226;8.682;2022-11-13T16:12:22;11.10;99.90
2162;DHT22;1087;50.226;8.682;2022-11-13T16:14:49;11.10;99.90
2162;DHT22;1087;50.226;8.682;2022-11-13T16:17:19;11.10;99.90
2162;DHT22;1087;50.226;8.682;2022-11-13T16:19:47;11.10;99.90
2162;DHT22;1087;50.226;8.682;2022-11-13T16:22:21;11.10;99.90
2162;DHT22;1087;50.226;8.682;2022-11-13T16:24:48;11.10;99.90
2162;DHT22;1087;50.226;8.682;2022-11-13T16:27:26;11.10;99.90
2162;DHT22;1087;50.226;8.682;2022-11-13T16:29:56;11.10;99.90
2162;DHT22;1087;50.226;8.682;2022-11-13T16:32:23;11.10;99.90
2162;DHT22;1087;50.226;8.682;2022-11-13T16:34:49;11.00;99.90
2162;DHT22;1087;50.226;8.682;2022-11-13T16:37:17;11.00;99.90
2162;DHT22;1087;50.226;8.682;2022-11-13T16:39:44;10.90;99.90
2162;DHT22;1087;50.226;8.682;2022-11-13T16:42:12;10.90;99.90
2162;DHT22;1087;50.226;8.682;2022-11-13T16:44:38;10.90;99.90
2162;DHT22;1087;50.226;8.682;2022-11-13T16:47:06;10.90;99.90
2162;DHT22;1087;50.226;8.682;2022-11-13T16:49:42;10.90;99.90
2162;DHT22;1087;50.226;8.682;2022-11-13T16:52:07;10.90;99.90
2162;DHT22;1087;50.226;8.682;2022-11-13T16:54:34;10.90;99.90
2162;DHT22;1087;50.226;8.682;2022-11-13T16:57:00;10.90;99.90
2162;DHT22;1087;50.226;8.682;2022-11-13T16:59:26;10.90;99.90
2162;DHT22;1087;50.226;8.682;2022-11-13T17:01:54;10.80;99.90
2162;DHT22;1087;50.226;8.682;2022-11-13T17:04:25;10.70;99.90
2162;DHT22;1087;50.226;8.682;2022-11-13T17:06:52;10.70;99.90
2162;DHT22;1087;50.226;8.682;2022-11-13T17:09:18;10.70;99.90
2162;DHT22;1087;50.226;8.682;2022-11-13T17:11:43;10.70;99.90
2162;DHT22;1087;50.226;8.682;2022-11-13T17:14:10;10.60;99.90
2162;DHT22;1087;50.226;8.682;2022-11-13T17:16:37;10.50;99.90
2162;DHT22;1087;50.226;8.682;2022-11-13T17:19:04;10.50;99.90
2162;DHT22;1087;50.226;8.682;2022-11-13T17:21:32;10.50;99.90
2162;DHT22;1087;50.226;8.682;2022-11-13T17:24:00;10.50;99.90
2162;DHT22;1087;50.226;8.682;2022-11-13T17:26:27;10.50;99.90
2162;DHT22;1087;50.226;8.682;2022-11-13T17:28:53;10.50;99.90